KGNB

Granby-Grand County Airport

Granby, Colorado, USA
METAR KGNB 230830Z AUTO 09003KT 10SM CLR 01/01 A3017 RMK AO2 T00130010
Observed Flight Rules
May-23 @ 08:30 UTC (19 minutes ago) Visual Flight Rules
Wind Visibility Clouds
90° at 3 knots 10 miles
  • Clear skies
Temperatures Readings
Current 1°C / 34°F
Dewpoint 1°C / 34°F
Humidity 100%
Altimeter 30.17" Hg
Pressure 1022 hPa
Elevation 2500
METAR KGNB 230830Z AUTO 09003KT 10SM CLR 01/01 A3017 RMK AO2 T00130010
Observed Flight Rules
May-23 @ 08:30 UTC
(19 minutes ago)
VFR
Wind Visibility
90° at 3 knots 10 miles
Clouds
  • Clear skies
Temperature Dewpoint
1°C / 34°F 1°C / 34°F
Humidity Altimeter Pressure
100% 30.17" Hg 1022 hPa